Time;durP1;ratioP1;P1;durP2;ratioP2;P2;SDS_P1;SDS_P2;PMS_P1;PMS_P2;Temp;Humidity;BMP_temperature;BMP_pressure;BME280_temperature;BME280_humidity;BME280_pressure;Samples;Min_cycle;Max_cycle;Signal;HPM_P1;HPM_P2
2021/11/17 02:28:10;;;;;;;16.45;5.78;;;;;;;;;;4982040;28;20171;-65
2021/11/17 02:30:48;;;;;;;10.80;5.10;;;;;;;;;;5018380;28;20081;-65
2021/11/17 02:33:26;;;;;;;15.13;5.63;;;;;;;;;;5046746;28;20056;-65
2021/11/17 02:36:02;;;;;;;13.52;5.13;;;;;;;;;;5050434;28;20871;-66
2021/11/17 02:38:42;;;;;;;13.27;4.82;;;;;;;;;;5049998;28;20059;-67
2021/11/17 02:41:17;;;;;;;12.40;5.10;;;;;;;;;;5048713;28;20385;-66
2021/11/17 02:43:52;;;;;;;11.82;5.03;;;;;;;;;;5030893;28;20598;-64
2021/11/17 02:46:31;;;;;;;13.25;5.70;;;;;;;;;;5045645;28;20048;-64
2021/11/17 02:49:07;;;;;;;14.98;5.82;;;;;;;;;;5047436;28;20491;-66
2021/11/17 02:51:43;;;;;;;14.45;5.82;;;;;;;;;;5047184;28;20143;-64
2021/11/17 02:54:19;;;;;;;12.77;5.75;;;;;;;;;;5048092;28;20136;-65
2021/11/17 02:56:54;;;;;;;12.00;5.10;;;;;;;;;;5047063;28;20057;-64
2021/11/17 02:59:28;;;;;;;13.32;5.18;;;;;;;;;;5048019;28;20660;-64
2021/11/17 03:02:14;;;;;;;12.82;4.90;;;;;;;;;;5041908;28;20049;-64
2021/11/17 03:04:49;;;;;;;15.48;5.95;;;;;;;;;;5048523;28;20049;-65
2021/11/17 03:07:28;;;;;;;13.63;5.60;;;;;;;;;;5041176;28;20041;-64
2021/11/17 03:10:07;;;;;;;15.50;5.18;;;;;;;;;;5044318;28;20504;-64
2021/11/17 03:12:42;;;;;;;14.07;5.28;;;;;;;;;;5040551;28;20056;-64
2021/11/17 03:15:24;;;;;;;13.73;5.22;;;;;;;;;;5048624;28;20398;-67
2021/11/17 03:17:58;;;;;;;17.55;5.78;;;;;;;;;;5049216;28;20043;-64
2021/11/17 03:20:33;;;;;;;12.85;5.80;;;;;;;;;;5045485;28;20106;-64
2021/11/17 03:23:09;;;;;;;13.88;6.18;;;;;;;;;;5035422;28;20378;-64
2021/11/17 03:25:48;;;;;;;12.10;4.82;;;;;;;;;;5042710;28;20053;-64
2021/11/17 03:28:27;;;;;;;16.42;5.53;;;;;;;;;;5042051;28;20059;-65
2021/11/17 03:31:02;;;;;;;14.45;5.93;;;;;;;;;;5047281;28;20132;-64
2021/11/17 03:33:37;;;;;;;15.02;5.00;;;;;;;;;;5046377;28;20128;-64
2021/11/17 03:36:21;;;;;;;17.65;6.20;;;;;;;;;;5049159;28;20049;-65
2021/11/17 03:39:02;;;;;;;13.47;6.03;;;;;;;;;;5037712;28;20425;-65
2021/11/17 03:41:39;;;;;;;15.38;6.72;;;;;;;;;;5038752;28;20300;-65
2021/11/17 03:44:17;;;;;;;14.05;5.00;;;;;;;;;;5046264;28;20339;-64
2021/11/17 03:46:55;;;;;;;13.38;6.07;;;;;;;;;;5040826;28;20122;-67
2021/11/17 03:49:31;;;;;;;14.63;6.15;;;;;;;;;;5042727;28;20047;-67
2021/11/17 03:52:09;;;;;;;16.90;5.72;;;;;;;;;;5043751;28;20488;-64
2021/11/17 03:54:50;;;;;;;12.90;4.72;;;;;;;;;;5047578;28;20471;-64
2021/11/17 03:57:25;;;;;;;14.82;5.75;;;;;;;;;;5046573;28;20128;-64
2021/11/17 04:00:08;;;;;;;12.73;5.10;;;;;;;;;;5044300;28;20497;-64
2021/11/17 04:02:54;;;;;;;12.10;5.28;;;;;;;;;;5045649;28;20045;-65
2021/11/17 04:05:40;;;;;;;11.60;5.05;;;;;;;;;;5043518;28;20477;-65
2021/11/17 04:08:21;;;;;;;13.73;5.07;;;;;;;;;;5049636;28;20558;-64
2021/11/17 04:10:57;;;;;;;12.32;5.43;;;;;;;;;;5040596;28;20055;-65
2021/11/17 04:13:30;;;;;;;10.48;5.15;;;;;;;;;;5047520;28;20065;-64
2021/11/17 04:16:06;;;;;;;13.77;5.65;;;;;;;;;;5047709;28;20144;-65
2021/11/17 04:18:40;;;;;;;12.75;5.63;;;;;;;;;;5045132;28;20048;-65
2021/11/17 04:21:17;;;;;;;15.25;6.03;;;;;;;;;;5047069;28;20041;-64
2021/11/17 04:23:52;;;;;;;14.13;5.32;;;;;;;;;;5039109;28;20049;-65
2021/11/17 04:26:29;;;;;;;19.67;5.90;;;;;;;;;;5049064;28;20053;-65
2021/11/17 04:29:06;;;;;;;15.18;5.53;;;;;;;;;;5041144;28;20065;-64
2021/11/17 04:31:42;;;;;;;15.10;6.13;;;;;;;;;;5047200;28;20084;-65
2021/11/17 04:34:20;;;;;;;17.42;6.75;;;;;;;;;;5046827;28;20048;-66
2021/11/17 04:37:02;;;;;;;14.27;6.07;;;;;;;;;;5045362;28;20063;-64
2021/11/17 04:40:00;;;;;;;15.60;5.50;;;;;;;;;;5046641;28;20503;-64
2021/11/17 04:42:40;;;;;;;15.13;5.53;;;;;;;;;;4953617;28;20447;-65
2021/11/17 04:45:14;;;;;;;18.63;5.90;;;;;;;;;;5038112;28;20059;-67
2021/11/17 04:47:52;;;;;;;18.92;5.82;;;;;;;;;;5042567;28;20049;-68
2021/11/17 04:50:38;;;;;;;19.33;5.70;;;;;;;;;;5047990;28;20049;-64
2021/11/17 04:53:16;;;;;;;14.23;5.45;;;;;;;;;;5044281;28;20053;-65
2021/11/17 04:55:51;;;;;;;16.58;6.63;;;;;;;;;;5048105;28;20052;-64
2021/11/17 04:58:27;;;;;;;16.58;5.93;;;;;;;;;;5042838;28;20084;-65
2021/11/17 05:01:06;;;;;;;15.48;5.78;;;;;;;;;;5042203;28;20053;-65
2021/11/17 05:03:43;;;;;;;14.07;5.30;;;;;;;;;;5042049;28;20055;-65
2021/11/17 05:06:18;;;;;;;15.43;5.97;;;;;;;;;;5042102;28;20136;-65
2021/11/17 05:08:50;;;;;;;15.45;6.13;;;;;;;;;;5046306;28;20087;-65
2021/11/17 05:11:24;;;;;;;16.75;6.10;;;;;;;;;;5045154;28;20045;-65
2021/11/17 05:13:57;;;;;;;16.10;5.63;;;;;;;;;;5046513;28;20068;-64
2021/11/17 05:16:35;;;;;;;14.55;5.63;;;;;;;;;;5047865;28;20048;-65
2021/11/17 05:19:07;;;;;;;17.92;5.45;;;;;;;;;;5043667;28;20552;-67
2021/11/17 05:21:42;;;;;;;14.25;5.57;;;;;;;;;;5043340;28;20102;-66
2021/11/17 05:24:17;;;;;;;14.95;5.78;;;;;;;;;;5045258;28;20076;-64
2021/11/17 05:26:51;;;;;;;11.75;4.95;;;;;;;;;;5044488;28;20049;-67
2021/11/17 05:29:27;;;;;;;15.45;5.43;;;;;;;;;;5032565;28;20059;-65
2021/11/17 05:32:01;;;;;;;14.80;5.57;;;;;;;;;;5038126;28;20131;-65
2021/11/17 05:34:39;;;;;;;17.13;5.85;;;;;;;;;;5044514;28;20476;-64
2021/11/17 05:37:13;;;;;;;16.92;6.03;;;;;;;;;;5043109;28;20040;-65
2021/11/17 05:39:47;;;;;;;17.35;6.82;;;;;;;;;;5041902;28;20514;-67
2021/11/17 05:42:21;;;;;;;16.30;6.20;;;;;;;;;;5038375;28;20492;-65
2021/11/17 05:44:57;;;;;;;15.05;5.85;;;;;;;;;;5040461;28;20135;-65
2021/11/17 05:47:31;;;;;;;12.60;4.85;;;;;;;;;;5043440;28;20090;-64
2021/11/17 05:50:06;;;;;;;14.18;6.18;;;;;;;;;;5043269;28;20371;-64
2021/11/17 05:52:44;;;;;;;14.30;5.57;;;;;;;;;;5044249;28;20074;-65
2021/11/17 05:55:28;;;;;;;13.88;5.70;;;;;;;;;;5045576;28;20049;-65
2021/11/17 05:58:05;;;;;;;13.82;6.05;;;;;;;;;;5046418;28;20148;-66
2021/11/17 06:00:47;;;;;;;14.80;5.78;;;;;;;;;;5035903;28;20132;-66
2021/11/17 06:03:27;;;;;;;17.63;6.07;;;;;;;;;;5049897;28;20179;-66
2021/11/17 06:05:55;;;;;;;17.33;6.68;;;;;;;;;;5049650;28;20060;-65
2021/11/17 06:08:23;;;;;;;13.80;5.82;;;;;;;;;;5051605;28;20131;-65
2021/11/17 06:10:54;;;;;;;17.17;6.35;;;;;;;;;;5044113;28;20368;-65
2021/11/17 06:13:23;;;;;;;15.80;5.95;;;;;;;;;;5048630;28;20051;-65
2021/11/17 06:15:52;;;;;;;20.40;6.32;;;;;;;;;;5041445;28;20069;-67
2021/11/17 06:18:22;;;;;;;13.88;5.65;;;;;;;;;;5038198;28;20048;-67
2021/11/17 06:20:50;;;;;;;15.65;5.78;;;;;;;;;;5044926;28;20350;-65
2021/11/17 06:23:21;;;;;;;16.35;6.13;;;;;;;;;;5049080;28;20151;-64
2021/11/17 06:25:49;;;;;;;20.77;6.45;;;;;;;;;;5041284;28;20095;-65
2021/11/17 06:28:21;;;;;;;17.50;6.20;;;;;;;;;;5046709;28;20155;-66
2021/11/17 06:30:49;;;;;;;15.57;6.78;;;;;;;;;;5042963;28;20053;-65
2021/11/17 06:33:18;;;;;;;19.15;6.88;;;;;;;;;;5043705;28;20059;-66
2021/11/17 06:35:47;;;;;;;17.75;5.32;;;;;;;;;;5043194;28;20179;-65
2021/11/17 06:38:17;;;;;;;14.98;6.18;;;;;;;;;;5042933;28;20136;-68
2021/11/17 06:40:46;;;;;;;17.55;6.40;;;;;;;;;;5042529;28;20045;-67
2021/11/17 06:43:15;;;;;;;23.05;6.38;;;;;;;;;;5047676;28;20049;-65
2021/11/17 06:45:52;;;;;;;15.43;6.05;;;;;;;;;;5043901;28;20429;-65
2021/11/17 06:48:21;;;;;;;16.90;6.45;;;;;;;;;;5051947;28;20060;-65
2021/11/17 06:50:50;;;;;;;18.13;6.30;;;;;;;;;;5044464;28;20140;-67
2021/11/17 06:53:18;;;;;;;18.00;6.60;;;;;;;;;;5034253;28;20055;-67
2021/11/17 06:55:47;;;;;;;17.00;6.82;;;;;;;;;;5046953;28;20053;-65
2021/11/17 06:58:15;;;;;;;18.00;6.00;;;;;;;;;;5048697;28;20045;-66
2021/11/17 07:00:45;;;;;;;16.92;5.65;;;;;;;;;;5044940;28;20191;-64
2021/11/17 07:03:15;;;;;;;13.75;5.60;;;;;;;;;;5047055;28;20068;-65
2021/11/17 07:05:45;;;;;;;16.65;6.20;;;;;;;;;;5045814;28;20045;-64
2021/11/17 07:08:14;;;;;;;16.20;6.90;;;;;;;;;;5047332;28;20136;-64
2021/11/17 07:10:42;;;;;;;16.38;6.32;;;;;;;;;;5045974;28;20059;-64
2021/11/17 07:13:11;;;;;;;14.88;5.70;;;;;;;;;;5045771;28;20477;-64
2021/11/17 07:15:39;;;;;;;19.30;6.40;;;;;;;;;;5038967;28;20103;-64
2021/11/17 07:18:08;;;;;;;14.52;5.75;;;;;;;;;;5045537;28;20041;-68
2021/11/17 07:20:39;;;;;;;15.95;5.78;;;;;;;;;;5043277;28;20151;-68
2021/11/17 07:23:09;;;;;;;15.20;6.03;;;;;;;;;;5039525;28;20053;-66
2021/11/17 07:25:38;;;;;;;14.63;5.32;;;;;;;;;;5035849;28;20191;-64
2021/11/17 07:28:06;;;;;;;15.02;5.82;;;;;;;;;;5041083;28;20126;-67
2021/11/17 07:30:36;;;;;;;17.92;6.97;;;;;;;;;;5041264;28;20052;-68
2021/11/17 07:33:05;;;;;;;16.60;6.13;;;;;;;;;;5040072;28;20045;-68
2021/11/17 07:35:35;;;;;;;17.60;6.57;;;;;;;;;;5039809;28;20056;-63
2021/11/17 07:38:06;;;;;;;17.92;6.18;;;;;;;;;;5040895;28;20539;-64
2021/11/17 07:40:36;;;;;;;17.38;6.47;;;;;;;;;;5032474;28;20111;-65
2021/11/17 07:43:05;;;;;;;17.20;6.50;;;;;;;;;;5047254;28;20056;-65
2021/11/17 07:45:35;;;;;;;15.55;6.20;;;;;;;;;;5046222;28;20130;-64
2021/11/17 07:48:08;;;;;;;18.05;7.05;;;;;;;;;;5047107;28;20081;-65
2021/11/17 07:50:39;;;;;;;16.05;6.68;;;;;;;;;;5039727;28;20433;-64
2021/11/17 07:53:10;;;;;;;14.88;6.47;;;;;;;;;;5039257;28;20142;-64
2021/11/17 07:55:41;;;;;;;17.85;6.72;;;;;;;;;;5040478;28;20126;-65
2021/11/17 07:58:10;;;;;;;13.40;5.68;;;;;;;;;;5041433;28;20512;-63
2021/11/17 08:00:40;;;;;;;17.50;6.13;;;;;;;;;;5039344;28;20156;-66
2021/11/17 08:03:10;;;;;;;15.95;6.43;;;;;;;;;;5039014;28;20040;-64
2021/11/17 08:06:04;;;;;;;16.20;6.70;;;;;;;;;;5037795;28;20135;-67
2021/11/17 08:08:37;;;;;;;18.45;7.25;;;;;;;;;;5034085;28;20048;-67
2021/11/17 08:11:07;;;;;;;15.70;6.55;;;;;;;;;;5036997;28;20582;-64
2021/11/17 08:13:37;;;;;;;15.68;6.25;;;;;;;;;;5038934;28;20056;-66
2021/11/17 08:16:06;;;;;;;14.30;5.85;;;;;;;;;;5032809;28;20167;-65
2021/11/17 08:18:38;;;;;;;17.77;7.15;;;;;;;;;;5038499;28;20057;-66
2021/11/17 08:21:08;;;;;;;15.85;5.72;;;;;;;;;;5039926;28;20047;-68
2021/11/17 08:23:39;;;;;;;18.63;7.20;;;;;;;;;;5043970;28;20036;-65
2021/11/17 08:26:09;;;;;;;16.67;5.95;;;;;;;;;;5046778;28;20519;-66
2021/11/17 08:28:39;;;;;;;16.00;5.90;;;;;;;;;;5039985;28;20045;-68
2021/11/17 08:31:08;;;;;;;12.55;5.78;;;;;;;;;;5041328;28;20098;-64
2021/11/17 08:33:37;;;;;;;17.15;6.30;;;;;;;;;;5049682;28;20053;-64
2021/11/17 08:36:06;;;;;;;17.00;6.70;;;;;;;;;;5040810;28;20092;-64
2021/11/17 08:38:35;;;;;;;15.25;6.18;;;;;;;;;;5038909;28;20061;-64
2021/11/17 08:41:08;;;;;;;15.65;6.13;;;;;;;;;;5048096;28;20048;-64
2021/11/17 08:43:37;;;;;;;18.58;6.10;;;;;;;;;;5046171;28;20449;-65
2021/11/17 08:46:06;;;;;;;20.65;6.63;;;;;;;;;;5045704;28;20496;-64
2021/11/17 08:48:37;;;;;;;14.35;5.57;;;;;;;;;;5046734;28;20045;-64
2021/11/17 08:51:07;;;;;;;12.73;5.78;;;;;;;;;;5048551;28;20045;-64
2021/11/17 08:53:36;;;;;;;15.10;5.97;;;;;;;;;;5048012;28;20084;-64
2021/11/17 08:56:07;;;;;;;14.65;4.90;;;;;;;;;;5045100;28;20382;-64
2021/11/17 08:58:36;;;;;;;12.90;3.97;;;;;;;;;;5044520;28;20057;-65
2021/11/17 09:01:05;;;;;;;12.57;5.20;;;;;;;;;;5044715;28;21307;-64
2021/11/17 09:03:34;;;;;;;12.18;4.93;;;;;;;;;;5033359;28;20052;-64
2021/11/17 09:06:04;;;;;;;15.90;5.03;;;;;;;;;;5044605;28;20041;-63
2021/11/17 09:08:33;;;;;;;7.97;3.75;;;;;;;;;;5030025;28;20774;-65
2021/11/17 09:11:04;;;;;;;10.02;4.82;;;;;;;;;;5035104;28;20049;-64
2021/11/17 09:13:35;;;;;;;9.55;4.15;;;;;;;;;;5046800;28;20060;-63
2021/11/17 09:16:04;;;;;;;15.60;5.05;;;;;;;;;;5041798;28;20128;-64
2021/11/17 09:18:34;;;;;;;11.98;5.18;;;;;;;;;;5045927;28;20555;-64
2021/11/17 09:21:04;;;;;;;12.20;4.60;;;;;;;;;;5046582;28;20156;-64
2021/11/17 09:23:33;;;;;;;15.88;5.38;;;;;;;;;;5045498;28;20049;-66
2021/11/17 09:26:03;;;;;;;12.70;4.72;;;;;;;;;;5039975;28;20044;-64
2021/11/17 09:28:34;;;;;;;13.27;4.93;;;;;;;;;;5045751;28;20057;-65
2021/11/17 09:31:05;;;;;;;14.27;4.82;;;;;;;;;;5046621;28;20049;-65
2021/11/17 09:33:37;;;;;;;13.77;5.05;;;;;;;;;;5042028;28;20057;-64
2021/11/17 09:36:06;;;;;;;13.07;5.28;;;;;;;;;;5045688;28;20053;-64
2021/11/17 09:38:36;;;;;;;14.45;5.55;;;;;;;;;;5047958;28;20451;-63
2021/11/17 09:41:06;;;;;;;13.50;5.28;;;;;;;;;;5045950;28;20068;-64
2021/11/17 09:43:39;;;;;;;13.65;5.15;;;;;;;;;;5052259;28;20481;-65
2021/11/17 09:46:08;;;;;;;12.82;4.97;;;;;;;;;;5048498;28;20087;-63
2021/11/17 09:48:39;;;;;;;13.32;5.72;;;;;;;;;;5050439;28;20508;-64
2021/11/17 09:51:10;;;;;;;15.32;6.43;;;;;;;;;;5046358;28;20444;-64
2021/11/17 09:53:40;;;;;;;11.90;4.65;;;;;;;;;;5050698;28;20132;-64
2021/11/17 09:56:11;;;;;;;14.32;5.50;;;;;;;;;;5049355;28;20067;-64
2021/11/17 09:58:44;;;;;;;11.13;4.97;;;;;;;;;;5044410;28;20056;-64
2021/11/17 10:01:15;;;;;;;11.38;4.38;;;;;;;;;;5047413;28;20106;-67
2021/11/17 10:03:45;;;;;;;9.30;3.95;;;;;;;;;;5048347;28;20111;-64
2021/11/17 10:06:33;;;;;;;9.23;4.32;;;;;;;;;;5050185;28;20052;-64
2021/11/17 10:12:17;;;;;;;13.38;4.57;;;;;;;;;;5049044;28;20566;-64
2021/11/17 10:14:52;;;;;;;10.15;4.07;;;;;;;;;;5033656;28;20493;-68
2021/11/17 10:17:21;;;;;;;;;;;;;;;;;;5041296;28;20098;-64
2021/11/17 10:20:04;;;;;;;11.45;4.43;;;;;;;;;;5049176;28;20016;-63
2021/11/17 10:22:33;;;;;;;14.93;4.20;;;;;;;;;;5031169;28;20096;-63
2021/11/17 10:25:07;;;;;;;10.85;4.22;;;;;;;;;;5042595;28;20056;-66
2021/11/17 10:27:36;;;;;;;11.23;4.68;;;;;;;;;;5048404;28;20517;-66
2021/11/17 10:30:10;;;;;;;13.90;4.00;;;;;;;;;;5039118;28;20053;-64
2021/11/17 10:32:40;;;;;;;12.80;4.03;;;;;;;;;;5049091;28;20041;-64
2021/11/17 10:35:13;;;;;;;10.50;4.55;;;;;;;;;;5046498;28;20080;-67
2021/11/17 10:37:45;;;;;;;10.18;4.25;;;;;;;;;;5029296;28;20080;-66
2021/11/17 10:40:15;;;;;;;10.55;4.82;;;;;;;;;;5049049;28;20397;-65
2021/11/17 10:42:44;;;;;;;10.05;4.38;;;;;;;;;;5054248;28;20052;-64
2021/11/17 10:45:26;;;;;;;9.82;3.63;;;;;;;;;;5052744;28;20063;-64
2021/11/17 10:47:55;;;;;;;10.73;3.97;;;;;;;;;;5052925;28;20110;-64
2021/11/17 10:50:40;;;;;;;7.95;3.58;;;;;;;;;;5065484;28;20140;-64
2021/11/17 10:53:13;;;;;;;8.20;3.25;;;;;;;;;;5047698;28;20061;-65
2021/11/17 10:55:43;;;;;;;7.65;3.25;;;;;;;;;;5041586;28;20052;-67
2021/11/17 10:58:13;;;;;;;6.70;3.05;;;;;;;;;;5046913;28;20041;-67
2021/11/17 11:00:44;;;;;;;8.88;3.88;;;;;;;;;;5030176;28;20049;-63
2021/11/17 11:03:14;;;;;;;8.75;3.25;;;;;;;;;;5035969;28;20064;-66
2021/11/17 11:05:44;;;;;;;7.97;3.20;;;;;;;;;;5048426;28;20098;-64
2021/11/17 11:08:15;;;;;;;10.20;3.53;;;;;;;;;;5047878;28;20061;-65
2021/11/17 11:10:45;;;;;;;6.13;3.03;;;;;;;;;;5045184;28;20057;-66
2021/11/17 11:13:20;;;;;;;6.50;2.97;;;;;;;;;;5044673;28;20523;-63
2021/11/17 11:15:52;;;;;;;8.35;3.28;;;;;;;;;;5038649;28;20036;-63
2021/11/17 11:18:26;;;;;;;9.63;3.65;;;;;;;;;;5050191;28;20541;-63
2021/11/17 11:20:55;;;;;;;9.05;3.22;;;;;;;;;;5045741;28;20444;-63
2021/11/17 11:23:26;;;;;;;10.10;3.42;;;;;;;;;;5050241;28;20044;-63
2021/11/17 11:26:00;;;;;;;8.75;3.15;;;;;;;;;;5049691;28;20065;-64
2021/11/17 11:28:31;;;;;;;6.32;2.72;;;;;;;;;;5049407;28;20037;-68
2021/11/17 11:31:22;;;;;;;7.63;2.47;;;;;;;;;;5042978;28;20064;-64
2021/11/17 11:33:52;;;;;;;6.15;2.63;;;;;;;;;;5047168;28;20051;-64
2021/11/17 11:36:30;;;;;;;6.25;2.67;;;;;;;;;;5063078;28;20049;-65
2021/11/17 11:39:17;;;;;;;5.45;3.03;;;;;;;;;;5047745;28;20079;-64
2021/11/17 11:41:47;;;;;;;6.45;3.28;;;;;;;;;;5050523;28;20246;-64
2021/11/17 11:44:26;;;;;;;7.00;3.00;;;;;;;;;;5039596;28;20060;-64
2021/11/17 11:47:25;;;;;;;8.43;3.28;;;;;;;;;;5050107;28;20041;-65
2021/11/17 11:49:55;;;;;;;6.78;2.90;;;;;;;;;;5045060;28;20045;-64
2021/11/17 11:52:28;;;;;;;13.02;2.90;;;;;;;;;;5047048;28;20061;-65
2021/11/17 11:55:11;;;;;;;7.15;3.20;;;;;;;;;;5029130;28;20135;-66
2021/11/17 11:57:40;;;;;;;8.15;3.20;;;;;;;;;;5045601;28;20098;-63
2021/11/17 12:00:11;;;;;;;8.85;3.35;;;;;;;;;;5045838;28;20470;-63
2021/11/17 12:02:45;;;;;;;7.50;3.10;;;;;;;;;;5051201;28;20072;-63
2021/11/17 12:05:24;;;;;;;9.77;3.90;;;;;;;;;;5052299;28;20044;-64
2021/11/17 12:07:54;;;;;;;8.48;2.83;;;;;;;;;;5059301;28;20170;-63
2021/11/17 12:10:26;;;;;;;6.68;2.72;;;;;;;;;;5056050;28;20057;-66
2021/11/17 12:12:54;;;;;;;6.32;2.47;;;;;;;;;;5050558;28;20056;-65
2021/11/17 12:15:34;;;;;;;6.90;2.25;;;;;;;;;;5049058;28;20048;-63
2021/11/17 12:18:09;;;;;;;6.78;2.85;;;;;;;;;;5047738;28;20049;-63
2021/11/17 12:20:39;;;;;;;7.53;2.50;;;;;;;;;;5050771;28;20060;-63
2021/11/17 12:23:19;;;;;;;5.95;2.42;;;;;;;;;;5049394;28;20472;-64
2021/11/17 12:25:59;;;;;;;5.75;2.88;;;;;;;;;;5057174;28;20456;-63
2021/11/17 12:28:29;;;;;;;6.07;2.22;;;;;;;;;;5042386;28;20038;-64
2021/11/17 12:30:59;;;;;;;8.77;2.40;;;;;;;;;;5039990;28;20167;-65
2021/11/17 12:33:35;;;;;;;5.20;2.35;;;;;;;;;;5047607;28;20487;-66
2021/11/17 12:36:08;;;;;;;6.05;2.60;;;;;;;;;;5050901;28;20052;-64
2021/11/17 12:38:37;;;;;;;5.45;2.38;;;;;;;;;;5052441;28;20167;-65
2021/11/17 12:41:08;;;;;;;4.07;2.05;;;;;;;;;;5054039;28;20049;-64
2021/11/17 12:43:39;;;;;;;5.35;2.63;;;;;;;;;;5049260;28;20075;-64
2021/11/17 12:46:10;;;;;;;5.18;2.65;;;;;;;;;;5049437;28;20088;-64
2021/11/17 12:48:42;;;;;;;4.43;2.13;;;;;;;;;;5035482;28;20049;-68
2021/11/17 12:51:14;;;;;;;4.35;1.98;;;;;;;;;;5038317;28;20392;-63
2021/11/17 12:53:44;;;;;;;7.15;2.67;;;;;;;;;;5042277;28;20045;-65
2021/11/17 12:56:16;;;;;;;5.60;2.67;;;;;;;;;;5045433;28;20068;-65
2021/11/17 12:58:47;;;;;;;9.18;3.08;;;;;;;;;;5043316;28;20102;-64
2021/11/17 13:01:19;;;;;;;6.70;2.58;;;;;;;;;;5035103;28;20040;-64
2021/11/17 13:04:06;;;;;;;6.45;2.50;;;;;;;;;;5051723;28;20049;-67
2021/11/17 13:06:46;;;;;;;5.93;2.70;;;;;;;;;;5041871;28;20084;-64
2021/11/17 13:09:16;;;;;;;5.55;2.05;;;;;;;;;;5056917;28;20101;-64
2021/11/17 13:12:07;;;;;;;6.43;2.42;;;;;;;;;;5046859;28;20048;-64
2021/11/17 13:14:37;;;;;;;4.75;2.13;;;;;;;;;;5008665;28;20115;-64
2021/11/17 13:17:09;;;;;;;7.97;2.45;;;;;;;;;;5050985;28;20044;-64
2021/11/17 13:19:41;;;;;;;8.60;2.45;;;;;;;;;;5047106;28;20147;-63
2021/11/17 13:22:21;;;;;;;8.80;2.20;;;;;;;;;;5063145;28;20053;-64
2021/11/17 13:24:50;;;;;;;3.90;2.17;;;;;;;;;;5036670;28;20053;-63
2021/11/17 13:27:21;;;;;;;6.70;2.10;;;;;;;;;;5047666;28;20416;-64
2021/11/17 13:29:52;;;;;;;5.28;2.10;;;;;;;;;;5046821;28;20048;-64
2021/11/17 13:32:25;;;;;;;5.60;2.40;;;;;;;;;;5045394;28;20453;-64
2021/11/17 13:34:56;;;;;;;3.88;1.92;;;;;;;;;;5045540;28;20179;-63
2021/11/17 13:37:26;;;;;;;8.52;2.30;;;;;;;;;;5046066;28;20049;-67
2021/11/17 13:39:59;;;;;;;7.28;2.25;;;;;;;;;;5041039;28;20098;-63
2021/11/17 13:42:28;;;;;;;4.20;2.08;;;;;;;;;;5057675;28;20541;-64
2021/11/17 13:44:57;;;;;;;5.65;2.45;;;;;;;;;;5055989;28;20048;-63
2021/11/17 13:47:26;;;;;;;5.18;2.25;;;;;;;;;;5047415;28;20099;-64
2021/11/17 13:49:59;;;;;;;5.90;2.65;;;;;;;;;;5042349;28;20037;-63
2021/11/17 13:52:31;;;;;;;4.78;2.40;;;;;;;;;;5046997;28;20055;-64
2021/11/17 13:55:00;;;;;;;8.70;2.15;;;;;;;;;;5053796;28;20135;-64
2021/11/17 13:57:29;;;;;;;5.75;2.67;;;;;;;;;;5049482;28;20052;-63
2021/11/17 13:59:59;;;;;;;6.30;2.15;;;;;;;;;;5046523;28;20060;-63
2021/11/17 14:02:27;;;;;;;4.05;1.85;;;;;;;;;;5040794;28;20045;-63
2021/11/17 14:04:56;;;;;;;6.13;2.10;;;;;;;;;;5044212;28;20057;-64
2021/11/17 14:07:26;;;;;;;5.60;2.05;;;;;;;;;;5046928;28;20059;-63
2021/11/17 14:09:55;;;;;;;4.72;2.40;;;;;;;;;;5050478;28;20107;-64
2021/11/17 14:12:23;;;;;;;6.70;2.05;;;;;;;;;;5046674;28;20055;-64
2021/11/17 14:14:52;;;;;;;3.53;1.90;;;;;;;;;;5046183;28;20080;-64
2021/11/17 14:17:22;;;;;;;4.72;2.15;;;;;;;;;;5040425;28;20048;-64
2021/11/17 14:19:51;;;;;;;5.10;2.00;;;;;;;;;;5036650;28;20079;-64
2021/11/17 14:22:19;;;;;;;4.13;2.15;;;;;;;;;;5045035;28;20045;-64
2021/11/17 14:24:51;;;;;;;6.00;2.90;;;;;;;;;;5046806;28;20048;-63
2021/11/17 14:27:20;;;;;;;7.38;2.55;;;;;;;;;;5047885;28;20115;-63
2021/11/17 14:29:52;;;;;;;5.05;2.38;;;;;;;;;;5045720;28;20052;-63
2021/11/17 14:32:24;;;;;;;4.35;2.33;;;;;;;;;;5049689;28;20084;-63
2021/11/17 14:34:52;;;;;;;6.15;2.47;;;;;;;;;;5063227;28;20603;-68
2021/11/17 14:37:21;;;;;;;4.22;2.13;;;;;;;;;;5050592;28;20049;-64
2021/11/17 14:39:51;;;;;;;5.40;2.28;;;;;;;;;;5043236;28;20055;-64
2021/11/17 14:42:20;;;;;;;5.25;2.42;;;;;;;;;;5047709;28;20132;-63
2021/11/17 14:44:48;;;;;;;6.00;2.47;;;;;;;;;;5049865;28;20052;-64
2021/11/17 14:47:17;;;;;;;6.45;2.67;;;;;;;;;;5049837;28;20471;-65
2021/11/17 14:49:46;;;;;;;6.13;2.45;;;;;;;;;;5050158;28;20107;-65
2021/11/17 14:52:16;;;;;;;6.32;2.40;;;;;;;;;;5048089;28;20059;-65
2021/11/17 14:54:45;;;;;;;6.90;2.47;;;;;;;;;;5045541;28;20111;-64
2021/11/17 14:57:17;;;;;;;5.13;2.60;;;;;;;;;;5048702;28;20040;-67
2021/11/17 14:59:45;;;;;;;4.07;2.15;;;;;;;;;;5048731;28;20172;-65
2021/11/17 15:02:17;;;;;;;6.30;2.88;;;;;;;;;;5050203;28;20084;-66
2021/11/17 15:04:46;;;;;;;4.78;2.42;;;;;;;;;;5042342;28;20555;-63
2021/11/17 15:07:15;;;;;;;4.10;2.55;;;;;;;;;;5042650;28;20080;-65
2021/11/17 15:09:43;;;;;;;4.93;2.20;;;;;;;;;;5049313;28;20488;-66
2021/11/17 15:12:14;;;;;;;5.40;2.50;;;;;;;;;;5049687;28;20499;-64
2021/11/17 15:14:45;;;;;;;4.93;2.28;;;;;;;;;;5046544;28;20059;-65
2021/11/17 15:17:16;;;;;;;4.07;2.00;;;;;;;;;;5048430;28;20163;-64
2021/11/17 15:19:45;;;;;;;4.43;2.22;;;;;;;;;;5043686;28;20088;-63
2021/11/17 15:22:14;;;;;;;4.30;2.20;;;;;;;;;;5048481;28;20126;-64
2021/11/17 15:24:43;;;;;;;3.05;1.88;;;;;;;;;;5050240;28;20053;-63
2021/11/17 15:27:13;;;;;;;5.00;2.42;;;;;;;;;;5047779;28;20041;-63
2021/11/17 15:29:43;;;;;;;3.95;2.00;;;;;;;;;;5046557;28;20131;-64
2021/11/17 15:32:18;;;;;;;5.65;2.08;;;;;;;;;;5042048;28;20048;-64
2021/11/17 15:34:47;;;;;;;4.43;2.00;;;;;;;;;;5048684;28;20102;-67
2021/11/17 15:37:17;;;;;;;3.47;2.25;;;;;;;;;;5048607;28;20460;-64
2021/11/17 15:39:46;;;;;;;5.88;1.85;;;;;;;;;;5046910;28;20053;-64
2021/11/17 15:42:15;;;;;;;4.38;2.00;;;;;;;;;;5048024;28;20049;-63
2021/11/17 15:44:44;;;;;;;2.70;1.70;;;;;;;;;;5048852;28;20060;-67
2021/11/17 15:47:14;;;;;;;3.42;2.03;;;;;;;;;;5044287;28;20393;-63
2021/11/17 15:49:44;;;;;;;4.13;1.80;;;;;;;;;;5045327;28;20116;-66
2021/11/17 15:52:12;;;;;;;5.60;2.33;;;;;;;;;;5048683;28;20056;-64
2021/11/17 15:54:41;;;;;;;5.22;1.83;;;;;;;;;;5048401;28;20049;-63
2021/11/17 15:57:10;;;;;;;4.45;1.90;;;;;;;;;;5047195;28;20048;-64
2021/11/17 15:59:40;;;;;;;3.90;1.65;;;;;;;;;;5041759;28;20063;-65
2021/11/17 16:02:09;;;;;;;3.83;1.70;;;;;;;;;;5047489;28;20052;-64
2021/11/17 16:04:40;;;;;;;4.38;1.85;;;;;;;;;;5046939;28;20408;-65
2021/11/17 16:07:10;;;;;;;6.22;1.88;;;;;;;;;;5045518;28;20052;-63
2021/11/17 16:09:40;;;;;;;4.18;1.70;;;;;;;;;;5047217;28;20557;-66
2021/11/17 16:12:11;;;;;;;2.60;1.42;;;;;;;;;;5045529;28;20045;-64
2021/11/17 16:14:40;;;;;;;2.80;1.52;;;;;;;;;;5045705;28;20056;-65
2021/11/17 16:17:10;;;;;;;4.07;1.70;;;;;;;;;;5042098;28;20041;-63
2021/11/17 16:19:48;;;;;;;3.58;2.22;;;;;;;;;;5047303;28;20049;-64
2021/11/17 16:22:20;;;;;;;4.22;1.65;;;;;;;;;;5041652;28;20052;-63
2021/11/17 16:27:39;;;;;;;4.75;2.10;;;;;;;;;;5048530;28;20048;-63
2021/11/17 16:30:12;;;;;;;4.07;1.70;;;;;;;;;;5046049;28;20393;-63
2021/11/17 16:32:40;;;;;;;4.05;2.20;;;;;;;;;;5042606;28;20057;-63
2021/11/17 16:35:12;;;;;;;5.97;1.98;;;;;;;;;;5039854;28;20484;-63
2021/11/17 16:37:41;;;;;;;6.25;1.92;;;;;;;;;;5044524;28;20114;-64
2021/11/17 16:40:13;;;;;;;3.05;1.88;;;;;;;;;;5048953;28;20153;-63
2021/11/17 16:42:41;;;;;;;4.85;2.28;;;;;;;;;;5047624;28;20130;-64
2021/11/17 16:45:11;;;;;;;4.55;1.80;;;;;;;;;;5047559;28;20508;-63
2021/11/17 16:47:40;;;;;;;3.28;1.60;;;;;;;;;;5046091;28;20053;-63
2021/11/17 16:50:09;;;;;;;4.88;2.22;;;;;;;;;;5041679;28;20475;-66
2021/11/17 16:52:41;;;;;;;5.00;2.92;;;;;;;;;;5047641;28;20443;-64
2021/11/17 16:55:13;;;;;;;4.10;2.13;;;;;;;;;;5044643;28;20492;-64
2021/11/17 16:57:42;;;;;;;4.32;1.80;;;;;;;;;;5044590;28;20041;-64
2021/11/17 17:00:12;;;;;;;6.82;2.50;;;;;;;;;;5041569;28;20577;-65
2021/11/17 17:02:41;;;;;;;4.20;1.90;;;;;;;;;;5047619;28;20514;-63
2021/11/17 17:05:10;;;;;;;5.88;2.33;;;;;;;;;;5048423;28;20149;-63
2021/11/17 17:07:40;;;;;;;4.22;2.28;;;;;;;;;;5047718;28;20088;-67
2021/11/17 17:10:09;;;;;;;5.13;2.30;;;;;;;;;;5045685;28;20043;-64
2021/11/17 17:12:38;;;;;;;4.50;2.28;;;;;;;;;;5046318;28;20053;-63
2021/11/17 17:15:08;;;;;;;4.65;2.22;;;;;;;;;;5034199;28;20504;-64
2021/11/17 17:17:37;;;;;;;4.22;2.38;;;;;;;;;;5036263;28;20198;-64
2021/11/17 17:20:07;;;;;;;6.03;2.45;;;;;;;;;;5038269;28;20114;-64
2021/11/17 17:22:35;;;;;;;3.80;2.42;;;;;;;;;;5043279;28;20051;-64
2021/11/17 17:25:07;;;;;;;4.53;2.95;;;;;;;;;;5049614;28;20049;-63
2021/11/17 17:27:37;;;;;;;5.70;2.33;;;;;;;;;;5036988;28;20099;-63
2021/11/17 17:30:06;;;;;;;10.15;2.67;;;;;;;;;;5053910;28;20139;-63
2021/11/17 17:32:35;;;;;;;5.45;2.47;;;;;;;;;;5049992;28;20048;-68
2021/11/17 17:35:05;;;;;;;6.57;2.40;;;;;;;;;;5049796;28;20141;-64
2021/11/17 17:37:33;;;;;;;5.65;2.55;;;;;;;;;;5028190;28;20049;-64
2021/11/17 17:40:02;;;;;;;4.97;2.63;;;;;;;;;;5043969;28;20048;-63